Time;durP1;ratioP1;P1;durP2;ratioP2;P2;SDS_P1;SDS_P2;PMS_P1;PMS_P2;Temp;Humidity;BMP_temperature;BMP_pressure;BME280_temperature;BME280_humidity;BME280_pressure;Samples;Min_cycle;Max_cycle;Signal;HPM_P1;HPM_P2
2024/02/17 00:01:50;;;;;;;21.87;16.00;;;;;;;;;;5075553;28;20197;-83
2024/02/17 00:04:17;;;;;;;21.97;14.10;;;;;;;;;;5075303;28;20264;-83
2024/02/17 00:06:44;;;;;;;20.27;14.63;;;;;;;;;;5073655;28;20193;-83
2024/02/17 00:09:11;;;;;;;18.03;13.13;;;;;;;;;;5092226;28;20666;-82
2024/02/17 00:11:38;;;;;;;17.43;12.97;;;;;;;;;;5094268;28;20226;-83
2024/02/17 00:14:07;;;;;;;18.60;11.30;;;;;;;;;;5094776;28;20220;-82
2024/02/17 00:16:34;;;;;;;21.23;13.30;;;;;;;;;;5113468;28;20195;-83
2024/02/17 00:19:02;;;;;;;13.97;10.80;;;;;;;;;;5101570;28;20204;-83
2024/02/17 00:21:29;;;;;;;13.50;10.03;;;;;;;;;;5094668;28;20199;-82
2024/02/17 00:23:56;;;;;;;15.97;10.77;;;;;;;;;;5112123;28;20203;-82
2024/02/17 00:26:23;;;;;;;13.83;10.80;;;;;;;;;;5115498;28;20190;-82
2024/02/17 00:28:51;;;;;;;11.63;9.77;;;;;;;;;;5114854;28;20615;-82
2024/02/17 00:31:18;;;;;;;16.70;11.17;;;;;;;;;;5114683;28;20200;-83
2024/02/17 00:33:45;;;;;;;13.10;9.77;;;;;;;;;;5114615;28;20283;-83
2024/02/17 00:36:13;;;;;;;14.37;10.10;;;;;;;;;;5114900;28;20650;-83
2024/02/17 00:38:40;;;;;;;13.00;9.93;;;;;;;;;;5114563;28;20200;-83
2024/02/17 00:41:10;;;;;;;14.40;9.93;;;;;;;;;;5096608;28;20200;-82
2024/02/17 00:43:37;;;;;;;13.60;10.27;;;;;;;;;;5093609;28;20233;-83
2024/02/17 00:46:04;;;;;;;12.33;9.63;;;;;;;;;;5092960;28;20188;-83
2024/02/17 00:48:32;;;;;;;11.63;9.03;;;;;;;;;;5094195;28;20261;-82
2024/02/17 00:50:59;;;;;;;12.37;8.87;;;;;;;;;;5093882;28;20257;-83
2024/02/17 00:53:27;;;;;;;13.17;10.03;;;;;;;;;;5094051;28;20227;-83
2024/02/17 00:55:55;;;;;;;11.00;8.87;;;;;;;;;;5093683;28;20257;-82
2024/02/17 00:58:21;;;;;;;14.83;10.67;;;;;;;;;;5094421;28;21590;-82
2024/02/17 01:00:48;;;;;;;11.00;9.40;;;;;;;;;;5093801;28;20690;-83
2024/02/17 01:03:15;;;;;;;16.60;9.93;;;;;;;;;;5094020;28;20196;-83
2024/02/17 01:05:42;;;;;;;12.93;9.20;;;;;;;;;;5093770;28;20208;-83
2024/02/17 01:08:10;;;;;;;17.57;10.53;;;;;;;;;;5093967;28;20250;-82
2024/02/17 01:10:38;;;;;;;11.67;8.87;;;;;;;;;;5093919;28;20275;-82
2024/02/17 01:13:09;;;;;;;11.83;9.47;;;;;;;;;;5100684;28;20195;-82
2024/02/17 01:15:36;;;;;;;11.83;9.20;;;;;;;;;;5113587;28;20208;-84
2024/02/17 01:18:02;;;;;;;13.50;9.63;;;;;;;;;;5107322;28;20571;-82
2024/02/17 01:20:29;;;;;;;14.43;9.97;;;;;;;;;;5093368;28;20693;-81
2024/02/17 01:22:56;;;;;;;13.77;10.27;;;;;;;;;;5093601;28;20254;-83
2024/02/17 01:25:24;;;;;;;12.50;9.77;;;;;;;;;;5093411;28;20197;-83
2024/02/17 01:27:53;;;;;;;14.20;10.67;;;;;;;;;;5093683;28;20261;-82
2024/02/17 01:30:20;;;;;;;16.83;11.37;;;;;;;;;;5093489;28;20196;-82
2024/02/17 01:32:46;;;;;;;17.00;12.33;;;;;;;;;;5093676;28;20599;-81
2024/02/17 01:35:14;;;;;;;11.33;10.07;;;;;;;;;;5093342;28;20219;-82
2024/02/17 01:37:40;;;;;;;11.90;9.13;;;;;;;;;;5093481;28;20230;-82
2024/02/17 01:40:08;;;;;;;14.90;10.03;;;;;;;;;;5093434;28;20621;-82
2024/02/17 01:42:35;;;;;;;11.67;10.03;;;;;;;;;;5103418;28;20199;-83
2024/02/17 01:45:05;;;;;;;11.40;9.20;;;;;;;;;;5105879;28;20226;-82
2024/02/17 01:47:32;;;;;;;11.23;9.70;;;;;;;;;;5092995;28;20231;-82
2024/02/17 01:49:58;;;;;;;15.50;10.27;;;;;;;;;;5093154;28;20564;-82
2024/02/17 01:52:25;;;;;;;12.70;10.13;;;;;;;;;;5093196;28;20189;-81
2024/02/17 01:54:52;;;;;;;11.70;9.40;;;;;;;;;;5092577;28;20223;-83
2024/02/17 01:57:19;;;;;;;12.30;9.40;;;;;;;;;;5092919;28;20261;-82
2024/02/17 01:59:45;;;;;;;11.73;9.20;;;;;;;;;;5082118;28;20212;-82
2024/02/17 02:02:14;;;;;;;13.93;9.77;;;;;;;;;;5072575;28;20201;-82
2024/02/17 02:04:40;;;;;;;13.07;9.43;;;;;;;;;;5082803;28;20254;-82
2024/02/17 02:07:07;;;;;;;10.53;8.30;;;;;;;;;;5092140;28;20192;-82
2024/02/17 02:09:34;;;;;;;12.70;9.90;;;;;;;;;;5091386;28;20254;-82
2024/02/17 02:12:01;;;;;;;11.73;8.57;;;;;;;;;;5091929;28;20680;-82
2024/02/17 02:14:27;;;;;;;13.33;9.40;;;;;;;;;;5092182;28;20223;-81
2024/02/17 02:16:54;;;;;;;10.57;8.67;;;;;;;;;;5091900;28;20207;-82
2024/02/17 02:19:22;;;;;;;12.27;8.87;;;;;;;;;;5110404;28;20202;-81
2024/02/17 02:21:49;;;;;;;13.70;10.73;;;;;;;;;;5112731;28;20199;-82
2024/02/17 02:24:16;;;;;;;12.17;9.77;;;;;;;;;;5112537;28;20674;-81
2024/02/17 02:26:44;;;;;;;11.17;9.40;;;;;;;;;;5112518;28;20191;-82
2024/02/17 02:29:11;;;;;;;11.73;8.53;;;;;;;;;;5112538;28;20214;-81
2024/02/17 02:31:40;;;;;;;11.77;10.17;;;;;;;;;;5104033;28;20196;-82
2024/02/17 02:34:07;;;;;;;12.30;8.97;;;;;;;;;;5092223;28;20736;-82
2024/02/17 02:36:34;;;;;;;13.27;10.13;;;;;;;;;;5091385;28;20581;-82
2024/02/17 02:39:01;;;;;;;11.23;8.87;;;;;;;;;;5092311;28;20189;-82
2024/02/17 02:41:30;;;;;;;11.97;10.17;;;;;;;;;;5092575;28;20199;-82
2024/02/17 02:43:58;;;;;;;10.23;8.37;;;;;;;;;;5092386;28;20200;-81
2024/02/17 02:46:25;;;;;;;13.03;9.23;;;;;;;;;;5088643;28;20207;-82
2024/02/17 02:48:51;;;;;;;12.33;9.37;;;;;;;;;;5072300;28;20197;-82
2024/02/17 02:51:18;;;;;;;11.90;10.43;;;;;;;;;;5079697;28;20197;-81
2024/02/17 02:53:45;;;;;;;13.27;10.17;;;;;;;;;;5091205;28;20697;-82
2024/02/17 02:56:12;;;;;;;11.87;8.30;;;;;;;;;;5092861;28;20207;-81
2024/02/17 02:58:38;;;;;;;11.60;9.33;;;;;;;;;;5091758;28;20196;-81
2024/02/17 03:01:07;;;;;;;10.47;8.40;;;;;;;;;;5092545;28;20200;-82
2024/02/17 03:03:34;;;;;;;11.83;8.77;;;;;;;;;;5092322;28;20196;-81
2024/02/17 03:06:07;;;;;;;13.73;10.03;;;;;;;;;;5092219;28;20207;-81
2024/02/17 03:08:34;;;;;;;12.10;9.10;;;;;;;;;;5091928;28;20200;-82
2024/02/17 03:11:01;;;;;;;10.47;8.43;;;;;;;;;;5094566;28;20605;-81
2024/02/17 03:13:28;;;;;;;13.63;8.90;;;;;;;;;;5095262;28;20199;-82
2024/02/17 03:15:55;;;;;;;11.60;8.53;;;;;;;;;;5095353;28;20577;-82
2024/02/17 03:18:23;;;;;;;13.17;9.47;;;;;;;;;;5095045;28;20200;-82
2024/02/17 03:20:50;;;;;;;13.50;8.73;;;;;;;;;;5095235;28;21098;-82
2024/02/17 03:23:17;;;;;;;12.93;9.60;;;;;;;;;;5095967;28;20196;-81
2024/02/17 03:25:44;;;;;;;10.07;9.07;;;;;;;;;;5096032;28;20192;-80
2024/02/17 03:28:11;;;;;;;10.47;8.80;;;;;;;;;;5096364;28;20200;-81
2024/02/17 03:30:38;;;;;;;15.97;9.03;;;;;;;;;;5094792;28;20196;-81
2024/02/17 03:33:06;;;;;;;11.33;8.80;;;;;;;;;;5095265;28;20286;-82
2024/02/17 03:35:34;;;;;;;11.07;8.60;;;;;;;;;;5095610;28;20293;-81
2024/02/17 03:38:01;;;;;;;17.03;9.30;;;;;;;;;;5095477;28;20211;-81
2024/02/17 03:40:27;;;;;;;11.73;10.03;;;;;;;;;;5095380;28;20551;-81
2024/02/17 03:42:54;;;;;;;11.67;9.20;;;;;;;;;;5095796;28;20197;-81
2024/02/17 03:45:21;;;;;;;11.03;8.60;;;;;;;;;;5095613;28;20204;-81
2024/02/17 03:47:48;;;;;;;14.60;9.20;;;;;;;;;;5095273;28;20207;-81
2024/02/17 03:50:15;;;;;;;13.13;9.57;;;;;;;;;;5094286;28;20196;-82
2024/02/17 03:52:44;;;;;;;15.50;9.67;;;;;;;;;;5077940;28;20270;-82
2024/02/17 03:55:11;;;;;;;14.63;9.83;;;;;;;;;;5082216;28;20220;-82
2024/02/17 03:57:40;;;;;;;13.10;9.23;;;;;;;;;;5104627;28;20223;-82
2024/02/17 04:00:11;;;;;;;13.30;9.50;;;;;;;;;;5115414;28;20538;-82
2024/02/17 04:02:38;;;;;;;11.23;8.17;;;;;;;;;;5114466;28;20297;-82
2024/02/17 04:05:07;;;;;;;10.97;8.90;;;;;;;;;;5095091;28;20200;-82
2024/02/17 04:07:34;;;;;;;8.93;7.77;;;;;;;;;;5094331;28;20199;-82
2024/02/17 04:10:03;;;;;;;10.50;8.27;;;;;;;;;;5095398;28;20207;-81
2024/02/17 04:12:30;;;;;;;11.60;9.13;;;;;;;;;;5094547;28;20254;-82
2024/02/17 04:14:57;;;;;;;12.33;10.17;;;;;;;;;;5093458;28;20222;-82
2024/02/17 04:17:24;;;;;;;20.53;10.73;;;;;;;;;;5102336;28;20221;-83
2024/02/17 04:19:51;;;;;;;17.00;14.13;;;;;;;;;;5094023;28;20211;-82
2024/02/17 04:22:17;;;;;;;15.33;10.70;;;;;;;;;;5093158;28;20233;-81
2024/02/17 04:24:45;;;;;;;17.47;13.20;;;;;;;;;;5094521;28;20203;-83
2024/02/17 04:27:13;;;;;;;15.70;12.33;;;;;;;;;;5094777;28;20670;-82
2024/02/17 04:29:40;;;;;;;16.20;11.57;;;;;;;;;;5094618;28;20203;-83
2024/02/17 04:32:07;;;;;;;13.80;11.33;;;;;;;;;;5094921;28;20643;-83
2024/02/17 04:34:34;;;;;;;13.93;11.97;;;;;;;;;;5095391;28;20242;-82
2024/02/17 04:37:02;;;;;;;17.50;11.83;;;;;;;;;;5090835;28;20201;-83
2024/02/17 04:39:29;;;;;;;14.93;11.37;;;;;;;;;;5073841;28;20197;-83
2024/02/17 04:41:56;;;;;;;14.13;9.73;;;;;;;;;;5074188;28;20678;-82
2024/02/17 04:44:24;;;;;;;13.87;10.10;;;;;;;;;;5073098;28;20208;-83
2024/02/17 04:46:51;;;;;;;11.23;9.30;;;;;;;;;;5074282;28;20255;-83
2024/02/17 04:49:18;;;;;;;33.23;23.70;;;;;;;;;;5075697;28;20274;-84
2024/02/17 04:51:45;;;;;;;44.40;34.57;;;;;;;;;;5109390;28;20199;-83
2024/02/17 04:54:12;;;;;;;16.10;12.90;;;;;;;;;;5093989;28;20287;-81
2024/02/17 04:56:39;;;;;;;15.67;10.80;;;;;;;;;;5093797;28;20200;-82
2024/02/17 04:59:06;;;;;;;13.43;10.40;;;;;;;;;;5094129;28;20192;-80
2024/02/17 05:01:34;;;;;;;12.10;10.37;;;;;;;;;;5092689;28;20204;-80
2024/02/17 05:04:00;;;;;;;14.83;10.00;;;;;;;;;;5093818;28;20208;-80
2024/02/17 05:06:28;;;;;;;14.37;10.53;;;;;;;;;;5093142;28;20261;-80
2024/02/17 05:08:54;;;;;;;13.97;9.60;;;;;;;;;;5094554;28;20200;-80
2024/02/17 05:11:22;;;;;;;17.70;13.90;;;;;;;;;;5092674;28;20547;-80
2024/02/17 05:13:49;;;;;;;24.57;16.73;;;;;;;;;;5094086;28;20195;-79
2024/02/17 05:16:16;;;;;;;20.77;14.27;;;;;;;;;;5092837;28;20643;-80
2024/02/17 05:18:44;;;;;;;18.33;14.13;;;;;;;;;;5092817;28;20232;-81
2024/02/17 05:21:11;;;;;;;19.13;12.87;;;;;;;;;;5093034;28;20666;-80
2024/02/17 05:23:39;;;;;;;18.30;14.00;;;;;;;;;;5093334;28;20211;-81
2024/02/17 05:26:09;;;;;;;25.07;21.00;;;;;;;;;;5093791;28;20537;-80
2024/02/17 05:28:35;;;;;;;18.70;14.53;;;;;;;;;;5093429;28;20211;-80
2024/02/17 05:31:02;;;;;;;19.03;13.10;;;;;;;;;;5093180;28;20200;-81
2024/02/17 05:33:29;;;;;;;23.10;13.93;;;;;;;;;;5093578;28;20224;-80
2024/02/17 05:35:57;;;;;;;25.10;17.60;;;;;;;;;;5094060;28;20220;-80
2024/02/17 05:38:24;;;;;;;27.47;20.13;;;;;;;;;;5093479;28;20203;-80
2024/02/17 05:40:50;;;;;;;39.67;30.00;;;;;;;;;;5093796;28;20196;-80
2024/02/17 05:43:17;;;;;;;30.80;22.03;;;;;;;;;;5092027;28;20273;-79
2024/02/17 05:45:44;;;;;;;21.17;16.37;;;;;;;;;;5092971;28;20200;-80
2024/02/17 05:48:11;;;;;;;21.43;14.17;;;;;;;;;;5074652;28;20679;-80
2024/02/17 05:50:41;;;;;;;19.53;14.17;;;;;;;;;;5071076;28;20212;-81
2024/02/17 05:53:09;;;;;;;25.20;18.77;;;;;;;;;;5088147;28;20196;-80
2024/02/17 05:55:36;;;;;;;27.27;20.60;;;;;;;;;;5092745;28;20219;-80
2024/02/17 05:58:03;;;;;;;28.47;19.87;;;;;;;;;;5092904;28;20199;-81
2024/02/17 06:00:29;;;;;;;33.83;23.27;;;;;;;;;;5091550;28;20635;-80
2024/02/17 06:02:56;;;;;;;54.33;34.50;;;;;;;;;;5088511;28;20193;-80
2024/02/17 06:05:24;;;;;;;70.07;40.17;;;;;;;;;;5081368;28;20197;-80
2024/02/17 06:07:50;;;;;;;43.20;28.97;;;;;;;;;;5092417;28;20192;-79
2024/02/17 06:10:20;;;;;;;26.47;19.10;;;;;;;;;;5079435;28;20205;-80
2024/02/17 06:12:48;;;;;;;58.27;42.03;;;;;;;;;;5088024;28;20200;-80
2024/02/17 06:15:15;;;;;;;59.20;38.23;;;;;;;;;;5073091;28;20684;-81
2024/02/17 06:17:43;;;;;;;63.40;43.13;;;;;;;;;;5091977;28;20196;-80
2024/02/17 06:22:55;;;;;;;24.33;17.50;;;;;;;;;;5071696;28;20725;-80
2024/02/17 06:25:24;;;;;;;21.13;15.63;;;;;;;;;;5080656;28;20204;-80
2024/02/17 06:27:50;;;;;;;23.00;15.77;;;;;;;;;;5083026;28;20245;-81
2024/02/17 06:30:17;;;;;;;25.83;17.67;;;;;;;;;;5083680;28;20254;-81
2024/02/17 06:32:45;;;;;;;37.97;27.27;;;;;;;;;;5071190;28;20585;-81
2024/02/17 06:35:11;;;;;;;57.33;38.37;;;;;;;;;;5072051;28;20307;-82
2024/02/17 06:37:40;;;;;;;42.33;31.23;;;;;;;;;;5086655;28;20283;-82
2024/02/17 06:40:08;;;;;;;31.40;23.43;;;;;;;;;;5092172;28;20615;-83
2024/02/17 06:42:39;;;;;;;31.53;22.50;;;;;;;;;;5091956;28;20659;-82
2024/02/17 06:45:25;;;;;;;22.33;17.63;;;;;;;;;;5091343;28;20745;-80
2024/02/17 06:47:52;;;;;;;19.50;14.27;;;;;;;;;;5085238;28;20185;-80
2024/02/17 06:50:19;;;;;;;18.47;12.20;;;;;;;;;;5072249;28;20671;-81
2024/02/17 06:52:45;;;;;;;19.97;13.57;;;;;;;;;;5105474;28;20196;-81
2024/02/17 06:55:12;;;;;;;18.50;15.07;;;;;;;;;;5112651;28;20669;-80
2024/02/17 06:57:40;;;;;;;19.80;13.30;;;;;;;;;;5112572;28;20199;-80
2024/02/17 07:00:08;;;;;;;16.50;12.00;;;;;;;;;;5113177;28;20206;-80
2024/02/17 07:02:36;;;;;;;16.43;12.40;;;;;;;;;;5112675;28;20203;-80
2024/02/17 07:05:03;;;;;;;70.17;39.57;;;;;;;;;;5098455;28;20290;-81
2024/02/17 07:07:29;;;;;;;32.17;20.93;;;;;;;;;;5089827;28;20282;-80
2024/02/17 07:09:56;;;;;;;19.83;13.23;;;;;;;;;;5071204;28;20200;-81
2024/02/17 07:12:23;;;;;;;16.33;12.03;;;;;;;;;;5091967;28;20204;-80
2024/02/17 07:14:51;;;;;;;20.80;15.30;;;;;;;;;;5090692;28;20192;-79
2024/02/17 07:17:18;;;;;;;17.37;12.97;;;;;;;;;;5085845;28;20247;-84
2024/02/17 07:19:45;;;;;;;20.33;15.37;;;;;;;;;;5079800;28;20268;-83
2024/02/17 07:22:12;;;;;;;25.23;16.37;;;;;;;;;;5091139;28;20189;-82
2024/02/17 07:24:38;;;;;;;20.97;14.50;;;;;;;;;;5091262;28;20215;-82
2024/02/17 07:27:05;;;;;;;21.13;15.10;;;;;;;;;;5092197;28;20203;-82
2024/02/17 07:29:35;;;;;;;20.03;15.53;;;;;;;;;;5090876;28;20290;-81
2024/02/17 07:32:03;;;;;;;21.70;15.80;;;;;;;;;;5091562;28;20621;-82
2024/02/17 07:34:31;;;;;;;19.30;15.03;;;;;;;;;;5092007;28;20233;-79
2024/02/17 07:36:58;;;;;;;16.77;12.80;;;;;;;;;;5091401;28;20223;-81
2024/02/17 07:39:25;;;;;;;21.00;11.43;;;;;;;;;;5090109;28;20645;-82
2024/02/17 07:41:52;;;;;;;16.33;11.93;;;;;;;;;;5091494;28;20285;-81
2024/02/17 07:44:20;;;;;;;20.07;12.57;;;;;;;;;;5077391;28;20192;-81
2024/02/17 07:46:49;;;;;;;16.67;12.07;;;;;;;;;;5095134;28;20577;-81
2024/02/17 07:49:17;;;;;;;24.80;14.70;;;;;;;;;;5092913;28;20632;-82
2024/02/17 07:51:44;;;;;;;16.33;11.80;;;;;;;;;;5089999;28;20203;-82
2024/02/17 07:54:11;;;;;;;21.00;13.03;;;;;;;;;;5091386;28;20196;-82
2024/02/17 07:56:38;;;;;;;19.47;13.97;;;;;;;;;;5094674;28;20288;-82
2024/02/17 07:59:05;;;;;;;16.07;12.00;;;;;;;;;;5110234;28;20611;-85
2024/02/17 08:01:32;;;;;;;20.20;13.57;;;;;;;;;;5090050;28;20378;-82
2024/02/17 08:03:59;;;;;;;19.70;14.07;;;;;;;;;;5092051;28;20720;-82
2024/02/17 08:06:27;;;;;;;18.17;13.90;;;;;;;;;;5094128;28;20295;-81
2024/02/17 08:08:54;;;;;;;18.90;13.30;;;;;;;;;;5093614;28;20188;-82
2024/02/17 08:11:21;;;;;;;18.53;14.70;;;;;;;;;;5106410;28;20203;-82
2024/02/17 08:13:48;;;;;;;19.83;14.00;;;;;;;;;;5093855;28;20199;-82
2024/02/17 08:16:15;;;;;;;26.27;23.27;;;;;;;;;;5082916;28;20225;-85
2024/02/17 08:18:43;;;;;;;22.50;17.20;;;;;;;;;;5093776;28;20232;-82
2024/02/17 08:21:10;;;;;;;18.23;15.20;;;;;;;;;;5106655;28;20605;-82
2024/02/17 08:23:38;;;;;;;22.37;15.13;;;;;;;;;;5081544;28;20203;-82
2024/02/17 08:26:07;;;;;;;17.73;13.43;;;;;;;;;;5093827;28;20203;-82
2024/02/17 08:28:33;;;;;;;19.27;14.60;;;;;;;;;;5093863;28;20680;-81
2024/02/17 08:31:00;;;;;;;19.90;15.77;;;;;;;;;;5093425;28;20205;-82
2024/02/17 08:33:27;;;;;;;22.93;16.93;;;;;;;;;;5093977;28;20285;-82
2024/02/17 08:35:53;;;;;;;28.40;18.20;;;;;;;;;;5107370;28;20236;-82
2024/02/17 08:38:20;;;;;;;18.50;15.03;;;;;;;;;;5094043;28;20196;-82
2024/02/17 08:40:48;;;;;;;32.67;22.13;;;;;;;;;;5080196;28;20201;-82
2024/02/17 08:43:15;;;;;;;109.43;66.57;;;;;;;;;;5093491;28;20203;-82
2024/02/17 08:45:42;;;;;;;85.00;56.40;;;;;;;;;;5107045;28;20618;-82
2024/02/17 08:48:09;;;;;;;91.17;53.57;;;;;;;;;;5093829;28;20226;-82
2024/02/17 08:50:36;;;;;;;31.10;20.90;;;;;;;;;;5094125;28;20197;-82
2024/02/17 08:53:03;;;;;;;39.30;24.43;;;;;;;;;;5105794;28;20226;-82
2024/02/17 08:55:30;;;;;;;46.63;29.43;;;;;;;;;;5093595;28;20197;-81
2024/02/17 08:57:58;;;;;;;29.57;20.33;;;;;;;;;;5093638;28;20184;-81
2024/02/17 09:00:24;;;;;;;28.07;20.33;;;;;;;;;;5093271;28;20691;-82
2024/02/17 09:02:51;;;;;;;29.83;19.67;;;;;;;;;;5093295;28;20200;-84
2024/02/17 09:05:18;;;;;;;19.70;15.63;;;;;;;;;;5093081;28;20196;-82
2024/02/17 09:07:45;;;;;;;18.17;13.80;;;;;;;;;;5092739;28;20273;-81
2024/02/17 09:10:15;;;;;;;26.90;15.17;;;;;;;;;;5092821;28;20193;-82
2024/02/17 09:12:42;;;;;;;21.93;13.87;;;;;;;;;;5093236;28;20208;-82
2024/02/17 09:15:11;;;;;;;20.73;13.77;;;;;;;;;;5106884;28;20710;-82
2024/02/17 09:17:39;;;;;;;21.13;14.13;;;;;;;;;;5092813;28;20224;-82
2024/02/17 09:20:10;;;;;;;17.87;13.53;;;;;;;;;;5093066;28;20215;-82
2024/02/17 09:22:39;;;;;;;20.23;13.63;;;;;;;;;;5092252;28;20197;-82
2024/02/17 09:25:07;;;;;;;19.93;14.53;;;;;;;;;;5096333;28;20199;-82
2024/02/17 09:27:34;;;;;;;24.23;17.97;;;;;;;;;;5101084;28;20196;-82
2024/02/17 09:30:04;;;;;;;20.00;14.17;;;;;;;;;;5092882;28;20203;-82
2024/02/17 09:32:32;;;;;;;17.30;13.67;;;;;;;;;;5092700;28;20204;-82
2024/02/17 09:34:58;;;;;;;19.30;14.07;;;;;;;;;;5092388;28;20620;-82
2024/02/17 09:37:25;;;;;;;19.53;14.60;;;;;;;;;;5092259;28;20281;-82
2024/02/17 09:39:52;;;;;;;20.07;15.67;;;;;;;;;;5098737;28;20202;-82
2024/02/17 09:42:19;;;;;;;19.67;13.80;;;;;;;;;;5101693;28;20207;-82
2024/02/17 09:44:46;;;;;;;24.17;17.57;;;;;;;;;;5092352;28;20744;-82
2024/02/17 09:47:13;;;;;;;23.27;16.27;;;;;;;;;;5091464;28;20627;-82
2024/02/17 09:49:41;;;;;;;20.37;16.03;;;;;;;;;;5097231;28;20553;-82
2024/02/17 09:52:08;;;;;;;22.23;16.60;;;;;;;;;;5112326;28;20199;-82
2024/02/17 09:54:37;;;;;;;19.03;14.23;;;;;;;;;;5085941;28;20202;-81
2024/02/17 09:57:07;;;;;;;19.37;14.40;;;;;;;;;;5098121;28;20277;-82
2024/02/17 09:59:33;;;;;;;19.97;15.70;;;;;;;;;;5091934;28;20195;-82
2024/02/17 10:02:02;;;;;;;17.80;14.13;;;;;;;;;;5091825;28;20192;-82
2024/02/17 10:04:31;;;;;;;19.73;15.83;;;;;;;;;;5091635;28;20290;-82
2024/02/17 10:07:03;;;;;;;24.33;17.93;;;;;;;;;;5091954;28;20204;-82
2024/02/17 10:09:30;;;;;;;25.17;15.53;;;;;;;;;;5085842;28;20203;-82
2024/02/17 10:11:57;;;;;;;21.77;16.97;;;;;;;;;;5088188;28;20200;-82
2024/02/17 10:14:26;;;;;;;21.70;16.20;;;;;;;;;;5091463;28;20246;-81
2024/02/17 10:16:57;;;;;;;21.27;16.07;;;;;;;;;;5108353;28;20246;-85
2024/02/17 10:19:24;;;;;;;21.00;15.90;;;;;;;;;;5089664;28;20212;-82
2024/02/17 10:21:51;;;;;;;22.17;15.73;;;;;;;;;;5085846;28;20200;-81
2024/02/17 10:24:20;;;;;;;20.00;15.57;;;;;;;;;;5091893;28;20278;-82
2024/02/17 10:26:52;;;;;;;23.80;17.20;;;;;;;;;;5091723;28;20601;-82
2024/02/17 10:29:18;;;;;;;23.97;17.80;;;;;;;;;;5091205;28;20658;-83
2024/02/17 10:31:47;;;;;;;20.10;16.27;;;;;;;;;;5091482;28;20196;-82
2024/02/17 10:34:14;;;;;;;19.20;15.50;;;;;;;;;;5091855;28;20486;-82
2024/02/17 10:36:41;;;;;;;21.47;16.60;;;;;;;;;;5092110;28;20212;-82
2024/02/17 10:39:11;;;;;;;22.43;16.67;;;;;;;;;;5090590;28;20200;-82
2024/02/17 10:41:39;;;;;;;25.40;17.63;;;;;;;;;;5091032;28;20199;-82
2024/02/17 10:44:07;;;;;;;22.70;16.37;;;;;;;;;;5091436;28;20676;-82
2024/02/17 10:46:35;;;;;;;19.60;15.90;;;;;;;;;;5078648;28;20204;-82
2024/02/17 10:49:11;;;;;;;23.87;17.23;;;;;;;;;;5089560;28;20283;-82
2024/02/17 10:51:44;;;;;;;22.63;16.50;;;;;;;;;;5090803;28;20717;-81
2024/02/17 10:54:12;;;;;;;24.20;17.37;;;;;;;;;;5090982;28;20196;-82
2024/02/17 10:56:40;;;;;;;20.60;15.03;;;;;;;;;;5091283;28;20693;-82
2024/02/17 10:59:07;;;;;;;23.27;16.97;;;;;;;;;;5091013;28;20204;-82
2024/02/17 11:01:35;;;;;;;36.33;25.23;;;;;;;;;;5091132;28;20200;-81
2024/02/17 11:04:02;;;;;;;25.30;17.60;;;;;;;;;;5091078;28;20188;-82
2024/02/17 11:06:30;;;;;;;23.40;17.53;;;;;;;;;;5090926;28;20204;-83
2024/02/17 11:08:57;;;;;;;20.17;14.00;;;;;;;;;;5091246;28;20253;-82
2024/02/17 11:11:25;;;;;;;21.23;16.77;;;;;;;;;;5103131;28;20196;-82
2024/02/17 11:13:54;;;;;;;22.93;18.07;;;;;;;;;;5092171;28;20200;-82
2024/02/17 11:16:22;;;;;;;21.90;16.50;;;;;;;;;;5103554;28;20215;-82
2024/02/17 11:18:52;;;;;;;21.27;17.37;;;;;;;;;;5097816;28;20199;-82
2024/02/17 11:21:24;;;;;;;21.70;16.40;;;;;;;;;;5097684;28;20644;-81
2024/02/17 11:23:51;;;;;;;25.60;17.03;;;;;;;;;;5103029;28;20196;-82
2024/02/17 11:26:20;;;;;;;22.83;17.40;;;;;;;;;;5090897;28;20200;-82
2024/02/17 11:28:48;;;;;;;19.97;15.17;;;;;;;;;;5090809;28;20254;-82
2024/02/17 11:31:17;;;;;;;21.23;15.40;;;;;;;;;;5102360;28;20200;-82
2024/02/17 11:33:45;;;;;;;26.30;16.97;;;;;;;;;;5094650;28;20315;-82
2024/02/17 11:36:13;;;;;;;26.70;17.70;;;;;;;;;;5109008;28;20207;-82
2024/02/17 11:38:40;;;;;;;20.53;15.77;;;;;;;;;;5106551;28;20192;-82
2024/02/17 11:41:07;;;;;;;25.37;18.50;;;;;;;;;;5094660;28;20204;-82
2024/02/17 11:43:35;;;;;;;25.50;15.90;;;;;;;;;;5094959;28;20207;-82
2024/02/17 11:46:03;;;;;;;22.93;16.53;;;;;;;;;;5094588;28;20208;-82
2024/02/17 11:48:33;;;;;;;20.67;15.87;;;;;;;;;;5095004;28;20196;-82
2024/02/17 11:51:05;;;;;;;24.07;16.57;;;;;;;;;;5099522;28;20251;-82
2024/02/17 11:53:32;;;;;;;22.57;17.13;;;;;;;;;;5090749;28;20293;-82
2024/02/17 11:56:02;;;;;;;25.23;16.90;;;;;;;;;;5090320;28;20202;-82
2024/02/17 11:58:30;;;;;;;20.13;14.23;;;;;;;;;;5082386;28;20231;-82
2024/02/17 12:00:57;;;;;;;18.73;15.07;;;;;;;;;;5093401;28;20188;-82
2024/02/17 12:03:26;;;;;;;19.37;15.13;;;;;;;;;;5108024;28;20220;-82
2024/02/17 12:05:56;;;;;;;18.87;15.10;;;;;;;;;;5080870;28;20546;-82
2024/02/17 12:08:22;;;;;;;23.67;16.33;;;;;;;;;;5095709;28;20211;-82
2024/02/17 12:10:49;;;;;;;25.23;15.03;;;;;;;;;;5106454;28;20196;-82
2024/02/17 12:13:17;;;;;;;19.10;14.27;;;;;;;;;;5107373;28;20211;-82
2024/02/17 12:15:44;;;;;;;20.07;13.63;;;;;;;;;;5094232;28;20602;-82
2024/02/17 12:18:12;;;;;;;20.20;14.33;;;;;;;;;;5094070;28;20220;-82
2024/02/17 12:20:39;;;;;;;20.43;13.83;;;;;;;;;;5093658;28;20246;-82
2024/02/17 12:23:09;;;;;;;23.60;15.03;;;;;;;;;;5094200;28;20563;-82
2024/02/17 12:25:36;;;;;;;21.57;14.80;;;;;;;;;;5093927;28;20291;-82
2024/02/17 12:28:03;;;;;;;19.93;15.20;;;;;;;;;;5093518;28;20294;-82
2024/02/17 12:30:30;;;;;;;21.87;16.87;;;;;;;;;;5093669;28;21028;-83
2024/02/17 12:33:09;;;;;;;22.37;14.03;;;;;;;;;;5093743;28;20231;-82
2024/02/17 12:35:35;;;;;;;23.43;15.43;;;;;;;;;;5094169;28;20194;-82
2024/02/17 12:38:02;;;;;;;18.07;13.63;;;;;;;;;;5093669;28;20220;-81
2024/02/17 12:40:30;;;;;;;20.37;14.37;;;;;;;;;;5082741;28;20208;-82
2024/02/17 12:42:58;;;;;;;21.57;14.07;;;;;;;;;;5090745;28;20545;-82
2024/02/17 12:45:26;;;;;;;22.40;15.40;;;;;;;;;;5093728;28;20204;-82
2024/02/17 12:47:52;;;;;;;20.37;14.17;;;;;;;;;;5093589;28;20278;-82
2024/02/17 12:50:19;;;;;;;17.80;14.33;;;;;;;;;;5093388;28;20201;-82
2024/02/17 12:52:46;;;;;;;18.40;13.73;;;;;;;;;;5093219;28;20610;-83
2024/02/17 12:55:15;;;;;;;23.77;16.87;;;;;;;;;;5093524;28;20196;-81
2024/02/17 12:57:44;;;;;;;26.10;16.73;;;;;;;;;;5087913;28;20217;-82
2024/02/17 13:00:12;;;;;;;24.03;16.33;;;;;;;;;;5087001;28;20199;-82
2024/02/17 13:02:39;;;;;;;17.77;13.77;;;;;;;;;;5093380;28;20200;-82
2024/02/17 13:05:08;;;;;;;30.43;18.90;;;;;;;;;;5102403;28;20196;-83
2024/02/17 13:07:35;;;;;;;18.67;14.03;;;;;;;;;;5093487;28;20204;-82
2024/02/17 13:10:04;;;;;;;21.10;13.90;;;;;;;;;;5092740;28;20196;-82
2024/02/17 13:12:31;;;;;;;22.07;14.60;;;;;;;;;;5093513;28;20199;-82
2024/02/17 13:14:59;;;;;;;23.37;15.17;;;;;;;;;;5092756;28;20210;-82
2024/02/17 13:17:27;;;;;;;22.07;14.73;;;;;;;;;;5092665;28;20561;-82
2024/02/17 13:19:53;;;;;;;21.10;12.97;;;;;;;;;;5093323;28;20577;-82
2024/02/17 13:22:20;;;;;;;92.23;44.67;;;;;;;;;;5093002;28;20636;-82
2024/02/17 13:24:47;;;;;;;117.43;54.53;;;;;;;;;;5092432;28;20203;-81
2024/02/17 13:27:14;;;;;;;73.97;34.00;;;;;;;;;;5102277;28;20267;-82
2024/02/17 13:29:41;;;;;;;83.83;39.63;;;;;;;;;;5095945;28;20196;-82
2024/02/17 13:32:09;;;;;;;25.67;16.97;;;;;;;;;;5092624;28;20188;-82
2024/02/17 13:34:36;;;;;;;27.97;18.90;;;;;;;;;;5105432;28;20231;-84
2024/02/17 13:37:04;;;;;;;27.17;18.00;;;;;;;;;;5103505;28;20283;-82
2024/02/17 13:39:31;;;;;;;20.23;13.13;;;;;;;;;;5097533;28;20192;-81
2024/02/17 13:41:58;;;;;;;19.50;13.87;;;;;;;;;;5092690;28;20222;-82
2024/02/17 13:44:25;;;;;;;23.17;16.23;;;;;;;;;;5095172;28;20226;-82
2024/02/17 13:46:54;;;;;;;20.97;14.37;;;;;;;;;;5102750;28;20282;-80
2024/02/17 13:49:22;;;;;;;21.30;16.13;;;;;;;;;;5105367;28;20199;-82
2024/02/17 13:51:48;;;;;;;24.50;14.87;;;;;;;;;;5101394;28;20580;-81
2024/02/17 13:54:15;;;;;;;19.10;14.13;;;;;;;;;;5107547;28;20269;-82
2024/02/17 13:56:42;;;;;;;24.33;16.90;;;;;;;;;;5091788;28;20200;-82
2024/02/17 13:59:09;;;;;;;23.10;15.10;;;;;;;;;;5091635;28;20272;-82
2024/02/17 14:01:38;;;;;;;20.00;13.00;;;;;;;;;;5103578;28;20235;-81
2024/02/17 14:04:09;;;;;;;22.67;16.00;;;;;;;;;;5107600;28;20643;-81
2024/02/17 14:06:39;;;;;;;17.43;13.90;;;;;;;;;;5092092;28;20204;-82
2024/02/17 14:09:09;;;;;;;19.20;13.90;;;;;;;;;;5098062;28;20369;-82
2024/02/17 14:11:36;;;;;;;19.07;13.40;;;;;;;;;;5099575;28;20647;-82
2024/02/17 14:14:02;;;;;;;21.13;14.53;;;;;;;;;;5092277;28;20622;-82
2024/02/17 14:16:29;;;;;;;20.13;14.13;;;;;;;;;;5091742;28;20211;-81
2024/02/17 14:18:56;;;;;;;25.20;13.93;;;;;;;;;;5091470;28;20227;-82
2024/02/17 14:21:26;;;;;;;20.53;13.43;;;;;;;;;;5091485;28;20238;-82
2024/02/17 14:23:57;;;;;;;22.20;14.43;;;;;;;;;;5091650;28;20309;-82